M I D A S
Marine Information and Data Acquisition System
Tripno 2268 of the Zeeleeuw from 2012-02-17 07:27:53 to 2012-02-17 15:06:24
Back to CruiseResearch ActivitiesStationsMapUnderway DataData graphs

EquipmentUnitsComment
TimeDGPSUTC
LatitudeDGPSDM.mWGS84
LongitudeDGPSDM.mWGS84
HeadingGyrodeg 
SOGDGPSknotsSpeed over ground
COGDGPSdegCourse over ground
DepthEcho soundermeters200 kHz
Missing or incorrect values are displayed as -999
Navigation data collected by the RV Zeeleeuw from 2012-02-17 07:02:22 to 2012-02-17 16:13:58
                                                                                    Next 1000 lines
Time Latitude Longitude Heading SOG COG Depth
2012-02-17 07:02:32 51°13.636 2°56.018 125.7 0.2 333 -999
2012-02-17 07:02:38 51°13.635 2°56.018 125.7 0.2 205 -999
2012-02-17 07:02:42 51°13.635 2°56.018 125.7 0.2 172 -999
2012-02-17 07:02:47 51°13.636 2°56.018 125.8 0.1 351 -999
2012-02-17 07:02:52 51°13.636 2°56.018 125.9 0.1 3 -999
2012-02-17 07:02:57 51°13.636 2°56.018 125.9 0.1 293 -999
2012-02-17 07:03:02 51°13.635 2°56.018 125.9 0.1 195 -999
2012-02-17 07:03:06 51°13.636 2°56.018 125.9 -999 10 -999
2012-02-17 07:03:12 51°13.636 2°56.018 125.9 0.1 193 -999
2012-02-17 07:03:18 51°13.636 2°56.018 125.9 0.2 186 -999
2012-02-17 07:03:23 51°13.636 2°56.018 125.9 0.1 181 -999
2012-02-17 07:03:27 51°13.636 2°56.019 125.9 0.1 178 -999
2012-02-17 07:03:33 51°13.636 2°56.019 125.8 0.1 180 -999
2012-02-17 07:03:38 51°13.636 2°56.019 125.8 -999 345 -999
2012-02-17 07:03:43 51°13.636 2°56.019 125.8 -999 18 -999
2012-02-17 07:03:48 51°13.636 2°56.019 125.8 0.1 90 -999
2012-02-17 07:03:53 51°13.636 2°56.019 125.8 0.1 110 -999
2012-02-17 07:03:58 51°13.636 2°56.019 125.8 0.1 130 -999
2012-02-17 07:04:02 51°13.636 2°56.019 125.8 0.1 151 -999
2012-02-17 07:04:08 51°13.636 2°56.019 125.8 0.1 144 -999
2012-02-17 07:04:12 51°13.636 2°56.019 125.8 0.2 196 -999
2012-02-17 07:04:18 51°13.635 2°56.019 125.8 0.3 194 -999
2012-02-17 07:04:22 51°13.635 2°56.018 125.8 0.3 194 -999
2012-02-17 07:04:27 51°13.635 2°56.019 125.9 0.3 195 -999
2012-02-17 07:04:33 51°13.636 2°56.019 125.9 0.1 205 -999
2012-02-17 07:04:38 51°13.636 2°56.019 125.9 -999 269 -999
2012-02-17 07:04:42 51°13.636 2°56.019 125.9 -999 318 -999
2012-02-17 07:04:47 51°13.636 2°56.019 125.9 -999 239 -999
2012-02-17 07:04:53 51°13.636 2°56.019 125.9 -999 169 -999
2012-02-17 07:04:58 51°13.636 2°56.019 125.9 0.1 167 -999
2012-02-17 07:05:02 51°13.636 2°56.019 125.8 0.1 162 -999
2012-02-17 07:05:07 51°13.636 2°56.019 125.7 0.1 162 -999
2012-02-17 07:05:12 51°13.637 2°56.019 125.6 0.1 276 -999
2012-02-17 07:05:18 51°13.637 2°56.019 125.5 0.1 314 -999
2012-02-17 07:05:23 51°13.637 2°56.019 125.3 0.1 9 -999
2012-02-17 07:05:27 51°13.637 2°56.019 125.2 0.1 37 10.5
2012-02-17 07:05:32 51°13.637 2°56.019 125.2 0.1 121 -999
2012-02-17 07:05:37 51°13.636 2°56.019 125.1 0.1 170 -999
2012-02-17 07:05:42 51°13.636 2°56.019 125 0.1 130 -999
2012-02-17 07:05:48 51°13.636 2°56.019 124.9 0.1 136 -999
2012-02-17 07:05:52 51°13.636 2°56.019 124.9 -999 148 -999
2012-02-17 07:05:57 51°13.636 2°56.019 124.9 -999 151 -999
2012-02-17 07:06:03 51°13.636 2°56.019 124.9 0.2 194 -999
2012-02-17 07:06:08 51°13.636 2°56.019 124.9 0.1 200 -999
2012-02-17 07:06:12 51°13.636 2°56.019 124.9 0.2 182 -999
2012-02-17 07:06:18 51°13.636 2°56.019 125 0.1 128 -999
2012-02-17 07:06:22 51°13.636 2°56.02 125.2 0.2 163 -999
2012-02-17 07:06:28 51°13.636 2°56.019 125.3 0.3 198 -999
2012-02-17 07:06:32 51°13.636 2°56.018 125.4 0.3 204 -999
2012-02-17 07:06:37 51°13.636 2°56.019 125.5 0.1 165 -999
2012-02-17 07:06:42 51°13.636 2°56.019 125.5 -999 356 -999
2012-02-17 07:06:47 51°13.637 2°56.019 125.6 0.1 344 -999
2012-02-17 07:06:52 51°13.637 2°56.019 125.6 0.1 347 -999
2012-02-17 07:06:57 51°13.636 2°56.019 125.7 0.1 177 -999
2012-02-17 07:07:02 51°13.636 2°56.018 125.7 0.1 263 -999
2012-02-17 07:07:07 51°13.637 2°56.018 125.6 0.1 251 -999
2012-02-17 07:07:12 51°13.636 2°56.018 125.6 0.1 202 -999
2012-02-17 07:07:17 51°13.636 2°56.018 125.5 0.1 208 -999
2012-02-17 07:07:22 51°13.637 2°56.018 125.5 0.1 227 -999
2012-02-17 07:07:27 51°13.637 2°56.018 125.5 0.1 181 -999
2012-02-17 07:07:32 51°13.636 2°56.019 125.5 0.1 157 -999
2012-02-17 07:07:37 51°13.636 2°56.018 125.6 0.2 207 -999
2012-02-17 07:07:42 51°13.636 2°56.018 125.7 0.2 178 -999
2012-02-17 07:07:47 51°13.636 2°56.018 125.7 0.2 184 -999
2012-02-17 07:07:52 51°13.636 2°56.018 125.9 0.2 204 -999
2012-02-17 07:07:57 51°13.636 2°56.018 126 0.1 192 -999
2012-02-17 07:08:02 51°13.636 2°56.019 126.1 0.1 132 -999
2012-02-17 07:08:07 51°13.637 2°56.018 126.2 0.1 211 -999
2012-02-17 07:08:12 51°13.636 2°56.019 126.2 0.1 177 -999
2012-02-17 07:08:18 51°13.637 2°56.019 126.3 0.1 116 -999
2012-02-17 07:08:22 51°13.637 2°56.019 126.3 0.1 66 -999
2012-02-17 07:08:28 51°13.637 2°56.019 126.3 0.1 346 -999
2012-02-17 07:08:32 51°13.637 2°56.019 126.3 -999 359 -999
2012-02-17 07:08:37 51°13.637 2°56.019 126.3 0.1 22 -999
2012-02-17 07:08:42 51°13.637 2°56.019 126.2 0.1 63 -999
2012-02-17 07:08:47 51°13.637 2°56.019 126.2 -999 223 -999
2012-02-17 07:08:52 51°13.637 2°56.019 126.2 0.1 327 -999
2012-02-17 07:08:57 51°13.637 2°56.019 126.2 0.1 45 -999
2012-02-17 07:09:03 51°13.637 2°56.019 126.2 0.1 59 -999
2012-02-17 07:09:07 51°13.637 2°56.019 126.1 0.1 188 -999
2012-02-17 07:09:13 51°13.637 2°56.019 126.1 0.1 247 -999
2012-02-17 07:09:18 51°13.637 2°56.019 126.1 0.1 230 -999
2012-02-17 07:09:23 51°13.637 2°56.019 126.1 -999 122 -999
2012-02-17 07:09:27 51°13.637 2°56.019 126.1 0.1 18 -999
2012-02-17 07:09:32 51°13.637 2°56.019 126.1 0.1 196 -999
2012-02-17 07:09:38 51°13.637 2°56.019 126.1 0.1 184 -999
2012-02-17 07:09:43 51°13.637 2°56.019 126.1 -999 93 -999
2012-02-17 07:09:47 51°13.637 2°56.019 126.1 0.1 60 -999
2012-02-17 07:09:52 51°13.636 2°56.02 126.1 0.1 114 -999
2012-02-17 07:09:57 51°13.636 2°56.02 126.1 0.1 149 -999
2012-02-17 07:10:02 51°13.636 2°56.02 126.1 0.1 163 -999
2012-02-17 07:10:07 51°13.637 2°56.019 126.1 0.1 161 -999
2012-02-17 07:10:12 51°13.637 2°56.019 126.1 0.1 166 -999
2012-02-17 07:10:18 51°13.637 2°56.019 126.1 -999 106 -999
2012-02-17 07:10:23 51°13.637 2°56.019 126.1 -999 226 -999
2012-02-17 07:10:27 51°13.637 2°56.019 126.2 0.1 238 -999
2012-02-17 07:10:32 51°13.637 2°56.019 126.2 0.1 223 -999
2012-02-17 07:10:37 51°13.637 2°56.019 126.2 0.1 233 -999
2012-02-17 07:10:43 51°13.637 2°56.019 126.2 0.1 332 -999
2012-02-17 07:10:48 51°13.637 2°56.019 126.2 0.1 247 -999
2012-02-17 07:10:52 51°13.637 2°56.019 126.2 0.1 268 -999
2012-02-17 07:10:57 51°13.637 2°56.018 126.2 0.1 247 -999
2012-02-17 07:11:02 51°13.637 2°56.019 126.2 0.1 9 -999
2012-02-17 07:11:08 51°13.636 2°56.019 126.2 0.1 60 -999
2012-02-17 07:11:12 51°13.636 2°56.019 126.2 0.1 268 -999
2012-02-17 07:11:17 51°13.637 2°56.019 126.2 0.1 325 -999
2012-02-17 07:11:22 51°13.636 2°56.019 126.2 0.1 74 -999
2012-02-17 07:11:28 51°13.636 2°56.019 126.2 0.1 84 -999
2012-02-17 07:11:33 51°13.636 2°56.019 126.2 0.1 298 -999
2012-02-17 07:11:37 51°13.636 2°56.019 126.2 -999 12 -999
2012-02-17 07:11:42 51°13.636 2°56.019 126.1 -999 138 -999
2012-02-17 07:11:47 51°13.636 2°56.019 126 -999 161 -999
2012-02-17 07:11:52 51°13.636 2°56.02 126 0.1 112 -999
2012-02-17 07:11:57 51°13.636 2°56.02 125.9 0.2 27 -999
2012-02-17 07:12:02 51°13.636 2°56.02 125.8 0.2 18 -999
2012-02-17 07:12:08 51°13.636 2°56.02 125.8 0.1 17 -999
2012-02-17 07:12:13 51°13.636 2°56.02 125.7 0.1 36 -999
2012-02-17 07:12:18 51°13.636 2°56.019 125.7 0.1 189 -999
2012-02-17 07:12:22 51°13.636 2°56.019 125.7 0.1 219 -999
2012-02-17 07:12:28 51°13.636 2°56.019 125.7 0.1 325 -999
2012-02-17 07:12:33 51°13.636 2°56.019 125.7 -999 275 -999
2012-02-17 07:12:38 51°13.636 2°56.018 125.7 0.1 264 -999
2012-02-17 07:12:42 51°13.636 2°56.019 125.7 0.1 221 -999
2012-02-17 07:12:48 51°13.636 2°56.018 125.7 0.2 213 -999
2012-02-17 07:12:52 51°13.636 2°56.019 125.7 0.1 266 -999
2012-02-17 07:12:57 51°13.636 2°56.019 125.7 0.1 162 -999
2012-02-17 07:13:02 51°13.636 2°56.02 125.8 0.1 63 -999
2012-02-17 07:13:08 51°13.636 2°56.019 125.8 0.1 336 -999
2012-02-17 07:13:12 51°13.635 2°56.019 125.8 0.2 248 -999
2012-02-17 07:13:18 51°13.635 2°56.019 125.9 0.1 174 -999
2012-02-17 07:13:23 51°13.635 2°56.019 125.9 -999 254 -999
2012-02-17 07:13:27 51°13.635 2°56.019 126 -999 246 -999
2012-02-17 07:13:33 51°13.635 2°56.019 126 0.1 35 -999
2012-02-17 07:13:38 51°13.635 2°56.019 126 0.1 48 -999
2012-02-17 07:13:42 51°13.635 2°56.019 126 0.1 98 -999
2012-02-17 07:13:47 51°13.635 2°56.019 126 0.1 72 -999
2012-02-17 07:13:52 51°13.635 2°56.019 126.1 0.1 33 -999
2012-02-17 07:13:57 51°13.635 2°56.019 126.1 0.1 197 -999
2012-02-17 07:14:03 51°13.635 2°56.018 126.1 0.1 204 -999
2012-02-17 07:14:08 51°13.635 2°56.018 126.1 0.1 231 -999
2012-02-17 07:14:12 51°13.635 2°56.018 126.1 0.1 226 -999
2012-02-17 07:14:18 51°13.635 2°56.019 126.1 -999 262 -999
2012-02-17 07:14:23 51°13.635 2°56.019 126.1 -999 19 -999
2012-02-17 07:14:28 51°13.635 2°56.019 126.1 -999 42 -999
2012-02-17 07:14:32 51°13.635 2°56.019 126.1 -999 321 -999
2012-02-17 07:14:37 51°13.635 2°56.019 126.1 -999 314 -999
2012-02-17 07:14:42 51°13.636 2°56.019 126.1 0.1 352 -999
2012-02-17 07:14:47 51°13.636 2°56.019 126.1 0.1 314 -999
2012-02-17 07:14:52 51°13.636 2°56.019 126.2 0.1 21 -999
2012-02-17 07:14:57 51°13.636 2°56.019 126.2 -999 219 -999
2012-02-17 07:15:03 51°13.636 2°56.019 126.3 0.1 243 -999
2012-02-17 07:15:08 51°13.636 2°56.02 126.3 0.1 132 -999
2012-02-17 07:15:13 51°13.636 2°56.02 126.2 0.1 75 -999
2012-02-17 07:15:17 51°13.636 2°56.02 125.9 0.1 47 -999
2012-02-17 07:15:22 51°13.636 2°56.02 125.7 0.1 23 -999
2012-02-17 07:15:28 51°13.636 2°56.019 125.2 0.1 229 -999
2012-02-17 07:15:32 51°13.636 2°56.019 125 0.1 223 -999
2012-02-17 07:15:37 51°13.636 2°56.019 125.1 -999 291 -999
2012-02-17 07:15:42 51°13.636 2°56.019 125.2 0.1 54 -999
2012-02-17 07:15:47 51°13.636 2°56.019 125.2 0.1 141 -999
2012-02-17 07:15:52 51°13.636 2°56.019 125.2 0.1 142 -999
2012-02-17 07:15:57 51°13.636 2°56.019 125.1 0.1 140 -999
2012-02-17 07:16:02 51°13.637 2°56.019 125.1 0.1 195 -999
2012-02-17 07:16:08 51°13.64 2°56.02 125.1 0.1 162 -999
2012-02-17 07:16:13 51°13.641 2°56.02 125.5 -999 189 -999
2012-02-17 07:16:18 51°13.64 2°56.02 126.3 0.1 179 -999
2012-02-17 07:16:22 51°13.639 2°56.02 126.7 -999 276 -999
2012-02-17 07:16:27 51°13.638 2°56.019 126.8 0.1 335 -999
2012-02-17 07:16:32 51°13.638 2°56.019 126.6 0.1 344 -999
2012-02-17 07:16:37 51°13.638 2°56.019 125.7 0.1 37 -999
2012-02-17 07:16:42 51°13.638 2°56.019 124.7 0.1 355 -999
2012-02-17 07:16:47 51°13.638 2°56.019 123.8 -999 178 -999
2012-02-17 07:16:52 51°13.637 2°56.02 123.5 0.1 134 -999
2012-02-17 07:16:56 51°13.637 2°56.02 123.5 0.2 134 -999
2012-02-17 07:17:03 51°13.637 2°56.02 124.1 0.1 47 -999
2012-02-17 07:17:07 51°13.637 2°56.02 124.7 0.1 322 -999
2012-02-17 07:17:13 51°13.637 2°56.019 124.8 0.1 326 -999
2012-02-17 07:17:18 51°13.637 2°56.019 125 0.2 228 -999
2012-02-17 07:17:23 51°13.637 2°56.019 125.5 -999 197 -999
2012-02-17 07:17:28 51°13.637 2°56.019 126.1 -999 202 -999
2012-02-17 07:17:33 51°13.637 2°56.019 126.6 -999 321 -999
2012-02-17 07:17:38 51°13.637 2°56.019 126.9 0.1 42 -999
2012-02-17 07:17:43 51°13.637 2°56.019 126.9 0.2 51 -999
2012-02-17 07:17:47 51°13.637 2°56.02 126.5 0.1 62 -999
2012-02-17 07:17:53 51°13.637 2°56.019 125.8 0.1 20 -999
2012-02-17 07:17:57 51°13.637 2°56.019 124.9 0.1 76 -999
2012-02-17 07:18:02 51°13.637 2°56.019 124.2 0.1 47 -999
2012-02-17 07:18:07 51°13.637 2°56.019 123.7 -999 258 -999
2012-02-17 07:18:13 51°13.637 2°56.018 123.3 0.1 268 -999
2012-02-17 07:18:17 51°13.637 2°56.018 122.8 -999 245 -999
2012-02-17 07:18:22 51°13.636 2°56.019 122.4 0.1 203 -999
2012-02-17 07:18:27 51°13.636 2°56.019 122.1 0.1 177 -999
2012-02-17 07:18:32 51°13.636 2°56.019 122 -999 145 -999
2012-02-17 07:18:38 51°13.636 2°56.019 121.7 -999 233 -999
2012-02-17 07:18:43 51°13.636 2°56.019 121.4 -999 162 -999
2012-02-17 07:18:47 51°13.636 2°56.019 121.3 -999 147 -999
2012-02-17 07:18:52 51°13.636 2°56.019 121.1 -999 235 -999
2012-02-17 07:18:58 51°13.636 2°56.019 121 -999 169 -999
2012-02-17 07:19:02 51°13.636 2°56.019 120.9 -999 334 -999
2012-02-17 07:19:07 51°13.636 2°56.019 120.9 -999 236 -999
2012-02-17 07:19:12 51°13.636 2°56.019 120.7 0.1 244 -999
2012-02-17 07:19:17 51°13.635 2°56.019 120.5 0.1 223 -999
2012-02-17 07:19:23 51°13.635 2°56.019 119.7 0.1 182 -999
2012-02-17 07:19:28 51°13.635 2°56.019 118.9 0.1 163 -999
2012-02-17 07:19:32 51°13.635 2°56.019 117.8 0.1 147 -999
2012-02-17 07:19:37 51°13.635 2°56.019 116.9 0.1 179 -999
2012-02-17 07:19:42 51°13.635 2°56.019 115.5 -999 258 -999
2012-02-17 07:19:47 51°13.635 2°56.019 114.2 0.2 202 -999
2012-02-17 07:19:53 51°13.635 2°56.018 112.9 0.3 238 -999
2012-02-17 07:19:57 51°13.635 2°56.018 111.9 0.3 291 -999
2012-02-17 07:20:02 51°13.635 2°56.017 111.3 0.7 281 10.7
2012-02-17 07:20:08 51°13.635 2°56.013 111.3 1.2 289 -999
2012-02-17 07:20:13 51°13.636 2°56.011 111.5 1.5 289 -999
2012-02-17 07:20:17 51°13.637 2°56.008 112.1 1.8 295 -999
2012-02-17 07:20:22 51°13.638 2°56.004 112.6 2.1 295 10.8
2012-02-17 07:20:27 51°13.64 2°55.999 112.9 2.5 295 -999
2012-02-17 07:20:33 51°13.642 2°55.991 112.9 3 293 -999
2012-02-17 07:20:37 51°13.643 2°55.986 112.4 3.2 294 -999
2012-02-17 07:20:42 51°13.645 2°55.979 112.2 3.6 294 -999
2012-02-17 07:20:48 51°13.648 2°55.969 111.9 3.8 293 -999
2012-02-17 07:20:53 51°13.65 2°55.961 111.4 3.9 291 -999
2012-02-17 07:20:58 51°13.651 2°55.953 110.8 3.9 290 -999
2012-02-17 07:21:02 51°13.653 2°55.947 110.5 3.9 290 -999
2012-02-17 07:21:07 51°13.655 2°55.939 110.4 4.1 291 -999
2012-02-17 07:21:12 51°13.657 2°55.931 110.4 4 290 -999
2012-02-17 07:21:18 51°13.659 2°55.921 111.1 4.1 289 -999
2012-02-17 07:21:22 51°13.661 2°55.914 112.2 4.1 290 -999
2012-02-17 07:21:28 51°13.663 2°55.905 113.3 4.1 292 -999
2012-02-17 07:21:32 51°13.665 2°55.898 114.5 4 293 -999
2012-02-17 07:21:38 51°13.668 2°55.888 115.9 4 294 -999
2012-02-17 07:21:43 51°13.671 2°55.88 116.8 4 297 -999
2012-02-17 07:21:47 51°13.673 2°55.873 117.4 4 296 -999
2012-02-17 07:21:52 51°13.675 2°55.864 117.7 3.9 295 -999
2012-02-17 07:21:57 51°13.678 2°55.856 117.8 4 297 -999
2012-02-17 07:22:02 51°13.681 2°55.848 117.9 4.1 297 -999
2012-02-17 07:22:07 51°13.683 2°55.84 117.9 4.1 297 -999
2012-02-17 07:22:13 51°13.686 2°55.832 117.7 4.2 296 -999
2012-02-17 07:22:17 51°13.688 2°55.825 117.3 4.2 296 -999
2012-02-17 07:22:22 51°13.691 2°55.817 116.6 4.3 297 -999
2012-02-17 07:22:27 51°13.694 2°55.809 116.2 4.2 296 -999
2012-02-17 07:22:32 51°13.696 2°55.801 115.7 3.9 297 -999
2012-02-17 07:22:37 51°13.698 2°55.793 115.5 3.8 297 -999
2012-02-17 07:22:43 51°13.701 2°55.785 115.3 3.6 296 -999
2012-02-17 07:22:48 51°13.702 2°55.779 114.8 3 297 -999
2012-02-17 07:22:52 51°13.704 2°55.775 113.7 2.2 297 -999
2012-02-17 07:22:58 51°13.705 2°55.773 111.1 0.9 306 -999
2012-02-17 07:23:03 51°13.705 2°55.774 106.6 0.6 46 -999
2012-02-17 07:23:07 51°13.705 2°55.776 99.5 1.5 77 -999
2012-02-17 07:23:12 51°13.706 2°55.78 90.4 1.8 76 -999
2012-02-17 07:23:18 51°13.707 2°55.784 80.6 1.6 65 -999
2012-02-17 07:23:22 51°13.708 2°55.786 74.4 1.4 65 -999
2012-02-17 07:23:27 51°13.708 2°55.788 70.7 0.8 62 4.8
2012-02-17 07:23:32 51°13.709 2°55.789 67.4 0.5 63 -999
2012-02-17 07:23:37 51°13.709 2°55.788 64.6 0.2 258 -999
2012-02-17 07:23:43 51°13.709 2°55.786 61.3 0.8 240 -999
2012-02-17 07:23:48 51°13.708 2°55.784 59.1 1.4 239 -999
2012-02-17 07:23:52 51°13.706 2°55.781 57 1.7 235 -999
2012-02-17 07:23:57 51°13.705 2°55.778 55 2 234 -999
2012-02-17 07:24:02 51°13.703 2°55.774 53.1 2 230 5.7
2012-02-17 07:24:07 51°13.701 2°55.771 51.6 1.9 231 -999
2012-02-17 07:24:12 51°13.699 2°55.768 50.6 1.8 228 -999
2012-02-17 07:24:17 51°13.698 2°55.765 50.1 1.8 229 -999
2012-02-17 07:24:22 51°13.697 2°55.763 49.9 1.5 230 -999
2012-02-17 07:24:28 51°13.696 2°55.761 49.6 0.7 228 -999
2012-02-17 07:24:33 51°13.696 2°55.762 47.8 0.2 25 -999
2012-02-17 07:24:37 51°13.697 2°55.763 43.6 0.8 34 -999
2012-02-17 07:24:42 51°13.699 2°55.764 37.7 1.5 29 -999
2012-02-17 07:24:47 51°13.702 2°55.766 30.4 2 21 -999
2012-02-17 07:24:52 51°13.704 2°55.767 22.5 2 17 -999
2012-02-17 07:24:57 51°13.707 2°55.769 15.4 2 14 -999
2012-02-17 07:25:02 51°13.71 2°55.769 11.3 1.8 10 -999
2012-02-17 07:25:08 51°13.712 2°55.77 8.6 1.4 12 -999
2012-02-17 07:25:13 51°13.713 2°55.77 6.3 0.7 11 -999
2012-02-17 07:25:18 51°13.713 2°55.77 3.5 0.3 75 -999
2012-02-17 07:25:22 51°13.712 2°55.771 1.3 0.3 149 -999
2012-02-17 07:25:27 51°13.712 2°55.771 359.6 0.4 141 -999
2012-02-17 07:25:32 51°13.712 2°55.772 358.9 0.3 123 -999
2012-02-17 07:25:37 51°13.711 2°55.772 358.5 0.3 112 -999
2012-02-17 07:25:42 51°13.711 2°55.772 358.3 0.1 61 -999
2012-02-17 07:25:47 51°13.712 2°55.773 358.1 0.7 20 -999
2012-02-17 07:25:52 51°13.714 2°55.773 356.2 1.4 357 -999
2012-02-17 07:25:58 51°13.717 2°55.772 351.9 1.9 352 -999
2012-02-17 07:26:03 51°13.721 2°55.77 345.6 2.6 341 -999
2012-02-17 07:26:07 51°13.724 2°55.767 337.6 3.2 334 -999
2012-02-17 07:26:13 51°13.729 2°55.761 331.6 3.9 326 -999
2012-02-17 07:26:18 51°13.734 2°55.755 324.5 4.6 323 -999
2012-02-17 07:26:23 51°13.739 2°55.748 320.9 4.7 318 -999
2012-02-17 07:26:27 51°13.743 2°55.742 318 4.8 316 -999
2012-02-17 07:26:33 51°13.748 2°55.733 315.5 4.8 314 -999
2012-02-17 07:26:37 51°13.752 2°55.727 313.9 4.9 313 -999
2012-02-17 07:26:42 51°13.757 2°55.719 313.6 4.9 315 -999
2012-02-17 07:26:47 51°13.762 2°55.712 314.4 5 317 -999
2012-02-17 07:26:53 51°13.768 2°55.702 315.1 5 316 -999
2012-02-17 07:26:58 51°13.774 2°55.695 316.5 5.1 318 -999
2012-02-17 07:27:02 51°13.778 2°55.689 318.2 5.1 319 -999
2012-02-17 07:27:08 51°13.784 2°55.68 319.4 5.1 319 -999
2012-02-17 07:27:12 51°13.788 2°55.674 319.9 5.2 320 -999
2012-02-17 07:27:17 51°13.795 2°55.667 320.9 5.7 323 -999
2012-02-17 07:27:22 51°13.802 2°55.659 322.3 6.3 324 -999
2012-02-17 07:27:27 51°13.81 2°55.651 325.3 6.9 328 -999
2012-02-17 07:27:32 51°13.818 2°55.643 327.8 7.2 328 -999
2012-02-17 07:27:38 51°13.83 2°55.633 329.7 7.7 331 -999
2012-02-17 07:27:43 51°13.84 2°55.623 330.4 8 329 -999
2012-02-17 07:27:48 51°13.85 2°55.615 332.2 8.3 333 -999
2012-02-17 07:27:53 51°13.86 2°55.606 333.3 8.6 331 13
2012-02-17 07:27:57 51°13.869 2°55.599 334.4 8.8 334 -999
2012-02-17 07:28:02 51°13.88 2°55.59 334.9 9 334 -999
2012-02-17 07:28:07 51°13.892 2°55.582 335.6 9.2 336 -999
2012-02-17 07:28:12 51°13.904 2°55.574 336.4 9.3 336 -999
2012-02-17 07:28:17 51°13.916 2°55.566 337.3 9.4 337 -999
2012-02-17 07:28:22 51°13.928 2°55.558 338.3 9.5 338 13
2012-02-17 07:28:27 51°13.941 2°55.55 339.5 9.6 339 13
2012-02-17 07:28:32 51°13.953 2°55.542 339.7 9.6 339 -999
2012-02-17 07:28:37 51°13.965 2°55.535 339.4 9.7 339 -999
2012-02-17 07:28:42 51°13.978 2°55.527 340.4 9.8 340 -999
2012-02-17 07:28:48 51°13.993 2°55.518 340.6 9.8 339 -999
2012-02-17 07:28:52 51°14.003 2°55.511 339.8 9.8 338 -999
2012-02-17 07:28:58 51°14.018 2°55.502 339.6 9.8 339 -999
2012-02-17 07:29:02 51°14.029 2°55.496 340.1 9.9 340 -999
2012-02-17 07:29:08 51°14.044 2°55.485 339.7 9.9 337 -999
2012-02-17 07:29:13 51°14.057 2°55.477 339.1 9.9 338 -999
2012-02-17 07:29:17 51°14.067 2°55.469 337.8 9.9 335 -999
2012-02-17 07:29:22 51°14.079 2°55.46 336.2 9.9 335 -999
2012-02-17 07:29:28 51°14.094 2°55.449 336.1 9.9 335 -999
2012-02-17 07:29:33 51°14.106 2°55.44 336 9.9 335 -999
2012-02-17 07:29:38 51°14.119 2°55.431 336.1 9.9 336 -999
2012-02-17 07:29:42 51°14.129 2°55.424 336.4 9.9 335 -999
2012-02-17 07:29:47 51°14.142 2°55.414 336.2 9.9 335 -999
2012-02-17 07:29:52 51°14.154 2°55.404 335 9.9 331 -999
2012-02-17 07:29:58 51°14.168 2°55.391 332.5 9.8 331 -999
2012-02-17 07:30:02 51°14.177 2°55.382 331.5 9.8 330 -999
2012-02-17 07:30:07 51°14.189 2°55.371 330.4 9.9 329 -999
2012-02-17 07:30:12 51°14.201 2°55.36 329.8 9.9 329 -999
2012-02-17 07:30:17 51°14.213 2°55.349 329.7 9.9 329 -999
2012-02-17 07:30:22 51°14.224 2°55.337 328.9 9.9 327 -999
2012-02-17 07:30:27 51°14.236 2°55.325 328.4 9.9 328 -999
2012-02-17 07:30:33 51°14.25 2°55.311 328.5 9.9 327 -999
2012-02-17 07:30:37 51°14.259 2°55.302 327.9 9.9 327 -999
2012-02-17 07:30:42 51°14.27 2°55.289 327.3 9.9 327 -999
2012-02-17 07:30:48 51°14.285 2°55.275 328.1 9.9 329 -999
2012-02-17 07:30:52 51°14.294 2°55.266 328.7 9.9 328 -999
2012-02-17 07:30:58 51°14.307 2°55.252 328.7 9.9 328 -999
2012-02-17 07:31:03 51°14.319 2°55.24 328.4 10 328 -999
2012-02-17 07:31:08 51°14.331 2°55.229 329.1 9.9 329 -999
2012-02-17 07:31:12 51°14.341 2°55.221 330.3 9.9 330 -999
2012-02-17 07:31:18 51°14.355 2°55.207 330.6 9.8 330 -999
2012-02-17 07:31:23 51°14.366 2°55.195 330.6 9.8 329 -999
2012-02-17 07:31:28 51°14.378 2°55.184 330.3 9.8 329 -999
2012-02-17 07:31:32 51°14.387 2°55.175 330.1 9.8 329 13.2
2012-02-17 07:31:37 51°14.398 2°55.164 329.8 9.7 328 12.6
2012-02-17 07:31:42 51°14.41 2°55.153 329.7 9.8 329 13.1
2012-02-17 07:31:48 51°14.424 2°55.14 329.6 9.8 330 -999
2012-02-17 07:31:52 51°14.433 2°55.131 329.9 9.7 331 -999
2012-02-17 07:31:57 51°14.446 2°55.121 331.3 9.9 333 -999
2012-02-17 07:32:03 51°14.46 2°55.108 331.8 10.2 332 -999
2012-02-17 07:32:07 51°14.471 2°55.099 331.6 10.7 330 13.1
2012-02-17 07:32:12 51°14.484 2°55.086 330.3 11 328 -999
2012-02-17 07:32:18 51°14.5 2°55.07 328.7 11.4 328 -999
2012-02-17 07:32:23 51°14.513 2°55.057 328.2 11.7 327 -999
2012-02-17 07:32:28 51°14.527 2°55.043 327.7 11.8 329 13.4
2012-02-17 07:32:32 51°14.539 2°55.033 327.7 12 332 13.5
2012-02-17 07:32:37 51°14.555 2°55.022 328.8 12.2 335 -999
2012-02-17 07:32:42 51°14.57 2°55.011 330.2 12.4 337 13.5
2012-02-17 07:32:48 51°14.589 2°54.999 331.5 12.4 338 -999
2012-02-17 07:32:52 51°14.602 2°54.991 331.4 12.4 337 -999
2012-02-17 07:32:57 51°14.618 2°54.979 330.4 12.3 335 -999
2012-02-17 07:33:02 51°14.633 2°54.967 327.7 12.2 331 -999
2012-02-17 07:33:07 51°14.647 2°54.953 323.8 12.1 329 13.4
2012-02-17 07:33:12 51°14.661 2°54.939 321.4 12 329 -999
2012-02-17 07:33:16 51°14.674 2°54.929 321.8 12.1 333 13.4
2012-02-17 07:33:22 51°14.692 2°54.916 324.5 12.3 337 13.9
2012-02-17 07:33:27 51°14.709 2°54.908 327.1 12.4 342 14.1
2012-02-17 07:33:32 51°14.725 2°54.9 332.2 12.6 346 13.1
2012-02-17 07:33:37 51°14.742 2°54.893 337.1 12.6 345 12.8
2012-02-17 07:33:41 51°14.755 2°54.888 338.3 12.6 345 13.1
2012-02-17 07:33:47 51°14.777 2°54.882 338.7 12.8 350 13.1
2012-02-17 07:33:52 51°14.794 2°54.878 341.5 12.7 351 12.9
2012-02-17 07:33:57 51°14.812 2°54.876 344.7 12.8 355 13.1
2012-02-17 07:34:01 51°14.827 2°54.874 347.5 13 355 12.8
2012-02-17 07:34:06 51°14.845 2°54.873 349.3 13.2 358 12.5
2012-02-17 07:34:11 51°14.863 2°54.872 351.4 13 359 12.7
2012-02-17 07:34:16 51°14.881 2°54.873 353.5 13.1 1 12.4
2012-02-17 07:34:21 51°14.899 2°54.873 354.7 13.2 1 12.2
2012-02-17 07:34:25 51°14.914 2°54.874 355.7 13.2 2 12.4
2012-02-17 07:34:31 51°14.936 2°54.876 356.5 13.2 3 11.8
2012-02-17 07:34:36 51°14.954 2°54.879 356.8 13.3 6 12.3
2012-02-17 07:34:41 51°14.972 2°54.884 359.4 13.5 10 12.1
2012-02-17 07:34:46 51°14.99 2°54.89 3.5 13.5 12 12.3
2012-02-17 07:34:50 51°15.005 2°54.896 6.7 13.6 14 11.9
2012-02-17 07:34:56 51°15.027 2°54.905 9 13.5 14 12
2012-02-17 07:35:00 51°15.041 2°54.912 10.2 13.5 17 12.2
2012-02-17 07:35:05 51°15.059 2°54.92 11.6 13.6 16 12
2012-02-17 07:35:10 51°15.077 2°54.93 12.9 13.6 18 12
2012-02-17 07:35:15 51°15.095 2°54.94 14.4 13.6 19 11.2
2012-02-17 07:35:20 51°15.112 2°54.95 16 13.5 20 11.5
2012-02-17 07:35:25 51°15.13 2°54.961 16.8 13.6 21 11.6
2012-02-17 07:35:30 51°15.148 2°54.972 17.5 13.6 22 11.4
2012-02-17 07:35:34 51°15.162 2°54.982 19 13.6 22 11.3
2012-02-17 07:35:39 51°15.179 2°54.994 20.1 13.6 24 11.2
2012-02-17 07:35:44 51°15.196 2°55.007 21.1 13.6 24 10.9
2012-02-17 07:35:49 51°15.214 2°55.02 22.9 13.7 25 10.9
2012-02-17 07:35:54 51°15.231 2°55.032 21.9 13.7 24 10.9
2012-02-17 07:35:59 51°15.248 2°55.046 21.9 13.7 25 10.9
2012-02-17 07:36:04 51°15.265 2°55.058 22 13.5 25 10.9
2012-02-17 07:36:09 51°15.282 2°55.071 22.7 13.6 25 10.7
2012-02-17 07:36:14 51°15.299 2°55.084 22.5 13.7 26 10.7
2012-02-17 07:36:19 51°15.316 2°55.098 23.4 13.7 27 11.2
2012-02-17 07:36:24 51°15.333 2°55.111 24.2 13.7 26 11.1
2012-02-17 07:36:29 51°15.35 2°55.124 23.2 13.7 26 11.1
2012-02-17 07:36:34 51°15.367 2°55.138 23.5 13.8 27 11.1
2012-02-17 07:36:39 51°15.385 2°55.151 23.8 13.8 26 11
2012-02-17 07:36:44 51°15.402 2°55.165 23.7 13.7 27 11.1
2012-02-17 07:36:49 51°15.419 2°55.178 23.2 13.8 27 11.3
2012-02-17 07:36:54 51°15.435 2°55.193 24.2 13.8 31 11.4
2012-02-17 07:36:59 51°15.451 2°55.21 27.7 13.8 34 11
2012-02-17 07:37:03 51°15.464 2°55.224 31.2 13.8 34 11.4
2012-02-17 07:37:08 51°15.479 2°55.242 32.4 13.9 36 11.3
2012-02-17 07:37:15 51°15.501 2°55.268 34.3 14 38 11.4
2012-02-17 07:37:19 51°15.513 2°55.284 36.1 13.9 39 11.5
2012-02-17 07:37:24 51°15.528 2°55.303 37.6 13.9 40 10.8
2012-02-17 07:37:29 51°15.542 2°55.325 39.7 13.9 43 11.3
2012-02-17 07:37:34 51°15.556 2°55.345 40.7 13.8 42 11.6
2012-02-17 07:37:39 51°15.569 2°55.367 42 13.8 45 11.7
2012-02-17 07:37:44 51°15.584 2°55.388 42.9 13.9 44 11.6
2012-02-17 07:37:48 51°15.594 2°55.406 44.1 13.9 46 11.4
2012-02-17 07:37:53 51°15.608 2°55.428 44.6 13.9 45 11.4
2012-02-17 07:37:59 51°15.624 2°55.455 44.6 13.9 46 11.6
2012-02-17 07:38:05 51°15.64 2°55.481 44.6 14 46 11.2
2012-02-17 07:38:09 51°15.651 2°55.499 45.6 14 46 11.3
2012-02-17 07:38:14 51°15.665 2°55.52 43.9 13.8 43 11.6
2012-02-17 07:38:19 51°15.678 2°55.542 45 13.9 47 11.8
2012-02-17 07:38:24 51°15.693 2°55.562 43.4 13.8 42 11.8
2012-02-17 07:38:29 51°15.707 2°55.582 41.1 13.6 41 11.5
2012-02-17 07:38:34 51°15.721 2°55.603 40 13.9 42 11.4
2012-02-17 07:38:39 51°15.736 2°55.624 39.6 14 42 11.7
2012-02-17 07:38:44 51°15.749 2°55.647 42.5 13.9 47 12.1
2012-02-17 07:38:49 51°15.762 2°55.668 44.5 13.8 47 11.8
2012-02-17 07:38:54 51°15.775 2°55.692 45.4 13.9 48 11.8
2012-02-17 07:38:58 51°15.785 2°55.71 47.3 14 48 11.8
2012-02-17 07:39:03 51°15.798 2°55.733 47.7 13.9 50 11.8
2012-02-17 07:39:09 51°15.813 2°55.761 48.2 14 49 11.9
2012-02-17 07:39:14 51°15.825 2°55.785 49.1 14 50 11.8
2012-02-17 07:39:19 51°15.837 2°55.809 49.4 14 51 12
2012-02-17 07:39:24 51°15.849 2°55.833 50.4 13.9 52 11.9
2012-02-17 07:39:29 51°15.861 2°55.857 51.3 13.9 51 11.6
2012-02-17 07:39:34 51°15.873 2°55.882 50.6 14 51 11.9
2012-02-17 07:39:39 51°15.886 2°55.906 50.2 14 52 12
2012-02-17 07:39:44 51°15.899 2°55.93 49.1 14 49 12.2
2012-02-17 07:39:49 51°15.911 2°55.954 49.4 14.1 53 12.2
2012-02-17 07:39:54 51°15.923 2°55.978 50.2 14 51 11.9
2012-02-17 07:39:59 51°15.934 2°56.003 51.5 14 53 11.8
2012-02-17 07:40:04 51°15.945 2°56.028 53 14 53 12.2
2012-02-17 07:40:09 51°15.957 2°56.053 52.1 13.9 53 12.2
2012-02-17 07:40:14 51°15.969 2°56.078 52.9 14 54 11.9
2012-02-17 07:40:18 51°15.978 2°56.097 53.8 14 52 11.9
2012-02-17 07:40:24 51°15.991 2°56.128 53.9 13.8 55 12.1
2012-02-17 07:40:29 51°16.003 2°56.153 53.6 13.9 54 11.9
2012-02-17 07:40:34 51°16.013 2°56.179 55 14.1 57 12.3
2012-02-17 07:40:39 51°16.026 2°56.204 54.3 14.1 52 12.1
2012-02-17 07:40:44 51°16.036 2°56.229 53.9 14 56 11.9
2012-02-17 07:40:49 51°16.047 2°56.254 54.3 13.9 55 11.9
2012-02-17 07:40:54 51°16.059 2°56.28 54.9 14 56 12
2012-02-17 07:40:59 51°16.07 2°56.305 54.9 13.9 55 12.1
2012-02-17 07:41:04 51°16.081 2°56.329 53.9 13.8 54 12
2012-02-17 07:41:09 51°16.093 2°56.355 53.7 13.8 54 11.9
2012-02-17 07:41:15 51°16.107 2°56.384 53.8 13.9 54 11.9
2012-02-17 07:41:19 51°16.114 2°56.405 53.8 13.8 56 12.1
2012-02-17 07:41:24 51°16.126 2°56.43 54.4 13.8 54 12
2012-02-17 07:41:29 51°16.137 2°56.455 54.1 13.9 55 12
2012-02-17 07:41:34 51°16.149 2°56.48 53.8 13.9 54 11.9
2012-02-17 07:41:39 51°16.16 2°56.505 53.8 13.9 55 12
2012-02-17 07:41:43 51°16.168 2°56.525 53.8 13.9 54 11.8
2012-02-17 07:41:49 51°16.182 2°56.555 54.3 14 55 11.7
2012-02-17 07:41:54 51°16.193 2°56.58 53.8 13.9 53 11.6
2012-02-17 07:41:59 51°16.202 2°56.607 55.9 13.8 61 12
2012-02-17 07:42:04 51°16.213 2°56.632 57.2 13.8 57 11.9
2012-02-17 07:42:09 51°16.221 2°56.659 59.6 13.8 63 11.8
2012-02-17 07:42:14 51°16.231 2°56.685 60.3 13.7 61 11.9
2012-02-17 07:42:20 51°16.241 2°56.719 61.9 13.8 64 12
2012-02-17 07:42:24 51°16.248 2°56.741 62.4 14 62 12
2012-02-17 07:42:29 51°16.256 2°56.77 63.2 14.1 67 12.1
2012-02-17 07:42:34 51°16.265 2°56.797 65.7 13.9 63 11.8
2012-02-17 07:42:39 51°16.272 2°56.825 64.1 13.9 67 11.8
2012-02-17 07:42:44 51°16.281 2°56.853 65.7 14.1 65 11.8
2012-02-17 07:42:49 51°16.288 2°56.882 66.1 14 67 11.8
2012-02-17 07:42:54 51°16.296 2°56.91 66.8 13.9 67 11.6
2012-02-17 07:42:59 51°16.302 2°56.938 68.2 13.9 70 11.8
2012-02-17 07:43:04 51°16.309 2°56.967 70 13.9 69 11.7
2012-02-17 07:43:08 51°16.313 2°56.99 70.5 14 73 11.9
2012-02-17 07:43:13 51°16.321 2°57.02 71.7 13.9 68 11.8
2012-02-17 07:43:18 51°16.327 2°57.049 70.3 13.9 72 11.6
2012-02-17 07:43:24 51°16.335 2°57.084 71.9 14 69 11.8
2012-02-17 07:43:29 51°16.343 2°57.113 69.6 14.1 69 11.6
2012-02-17 07:43:34 51°16.349 2°57.142 69.3 14.1 69 11.7
2012-02-17 07:43:39 51°16.357 2°57.171 69.3 14.1 67 11.7
2012-02-17 07:43:44 51°16.363 2°57.2 68.7 13.9 69 11.5
2012-02-17 07:43:50 51°16.372 2°57.234 69.3 14 67 11.7
2012-02-17 07:43:55 51°16.379 2°57.263 69 14.1 69 11.5
2012-02-17 07:43:59 51°16.384 2°57.286 69.7 14 70 11.9
2012-02-17 07:44:04 51°16.392 2°57.315 69.6 14.1 69 11.8
2012-02-17 07:44:09 51°16.399 2°57.344 69.9 14 68 11.6
2012-02-17 07:44:14 51°16.406 2°57.373 69 14.1 67 11.8
2012-02-17 07:44:19 51°16.415 2°57.402 67.8 14.3 66 11.5
2012-02-17 07:44:24 51°16.423 2°57.431 67 14.2 65 11.8
2012-02-17 07:44:30 51°16.432 2°57.465 66.5 14.2 65 12
2012-02-17 07:44:35 51°16.44 2°57.493 66.1 14.1 66 12
2012-02-17 07:44:39 51°16.446 2°57.516 66.4 14.1 65 11.9
2012-02-17 07:44:44 51°16.454 2°57.545 66.2 14.1 68 12.1
2012-02-17 07:44:49 51°16.462 2°57.573 66.7 14.1 64 11.9
2012-02-17 07:44:54 51°16.469 2°57.602 67.1 14.1 69 12
2012-02-17 07:44:59 51°16.477 2°57.63 67.7 14.1 66 11.9
2012-02-17 07:45:04 51°16.485 2°57.659 67.3 14 68 11.9
2012-02-17 07:45:08 51°16.491 2°57.683 68.4 14.2 68 12
2012-02-17 07:45:14 51°16.501 2°57.717 68.3 14.2 66 11.9
2012-02-17 07:45:19 51°16.507 2°57.746 68.4 14.1 67 12
2012-02-17 07:45:24 51°16.515 2°57.774 67.1 14.1 65 12
2012-02-17 07:45:29 51°16.523 2°57.802 67.5 14 66 12
2012-02-17 07:45:34 51°16.532 2°57.83 65.4 14.1 64 11.8
2012-02-17 07:45:39 51°16.541 2°57.858 65.1 14.1 63 12.1
2012-02-17 07:45:44 51°16.55 2°57.886 64.2 14.1 62 12
2012-02-17 07:45:49 51°16.559 2°57.913 62.6 14 61 12.1
2012-02-17 07:45:54 51°16.569 2°57.939 60 13.9 60 11.9
2012-02-17 07:45:59 51°16.58 2°57.966 59.3 14.1 58 12
2012-02-17 07:46:04 51°16.59 2°57.992 58.2 14.1 56 12
2012-02-17 07:46:09 51°16.601 2°58.018 56.3 14.1 56 11.9
2012-02-17 07:46:15 51°16.614 2°58.047 56 14 54 11.7
2012-02-17 07:46:19 51°16.624 2°58.068 54.1 14 54 11.8
2012-02-17 07:46:25 51°16.639 2°58.097 51.8 14.1 51 11.8
2012-02-17 07:46:29 51°16.648 2°58.117 51.7 14.1 54 12
2012-02-17 07:46:34 51°16.66 2°58.141 51.5 14 51 12.1
2012-02-17 07:46:39 51°16.671 2°58.165 50.9 13.9 52 12.1
2012-02-17 07:46:44 51°16.684 2°58.19 51.2 14 52 11.8
2012-02-17 07:46:49 51°16.696 2°58.215 51.7 14.1 52 12.2
2012-02-17 07:46:54 51°16.708 2°58.239 51 14.1 52 12.1
2012-02-17 07:46:59 51°16.72 2°58.263 52.3 14.1 51 11.9
2012-02-17 07:47:04 51°16.731 2°58.288 51.4 14.1 55 12.1
2012-02-17 07:47:09 51°16.743 2°58.312 53.4 14 51 12
2012-02-17 07:47:14 51°16.754 2°58.338 53.1 14.1 56 12.1
2012-02-17 07:47:19 51°16.766 2°58.363 53.6 14 52 11.9
2012-02-17 07:47:24 51°16.777 2°58.389 53.7 14.2 55 12.3
2012-02-17 07:47:29 51°16.789 2°58.415 53.6 14.2 54 12
2012-02-17 07:47:34 51°16.801 2°58.44 53.6 14.2 54 11.8
2012-02-17 07:47:39 51°16.813 2°58.464 53.3 14.2 53 12.2
2012-02-17 07:47:44 51°16.824 2°58.489 52.7 14.2 53 12.3
2012-02-17 07:47:49 51°16.836 2°58.514 52.9 14.1 54 12.1
2012-02-17 07:47:53 51°16.846 2°58.533 52.2 14.1 51 12.1
2012-02-17 07:47:58 51°16.857 2°58.559 52.1 14.1 54 11.9
2012-02-17 07:48:03 51°16.87 2°58.583 52.6 14.2 52 12.2
2012-02-17 07:48:08 51°16.882 2°58.607 51.8 14.2 52 12.1
2012-02-17 07:48:14 51°16.897 2°58.637 51.4 14.3 52 12.1
2012-02-17 07:48:19 51°16.909 2°58.662 51.6 14.2 53 11.9
2012-02-17 07:48:24 51°16.92 2°58.688 52.2 14.4 55 12.4
2012-02-17 07:48:29 51°16.932 2°58.712 53.6 14.3 53 12
2012-02-17 07:48:34 51°16.943 2°58.738 54.6 14.3 55 12
2012-02-17 07:48:39 51°16.954 2°58.764 55 14.3 55 12.3
2012-02-17 07:48:44 51°16.966 2°58.789 55.2 14.2 54 11.9
2012-02-17 07:48:49 51°16.977 2°58.816 55.9 14.2 55 12.4
2012-02-17 07:48:54 51°16.989 2°58.842 54.9 14.3 56 12.4
2012-02-17 07:48:59 51°17 2°58.867 55.2 14.2 53 12.3
2012-02-17 07:49:03 51°17.01 2°58.887 54.1 14.3 54 12
2012-02-17 07:49:09 51°17.024 2°58.917 53.9 14.1 51 12.1
2012-02-17 07:49:14 51°17.035 2°58.943 52.7 14.2 56 12.2
2012-02-17 07:49:19 51°17.047 2°58.969 55.3 14.3 56 12
2012-02-17 07:49:24 51°17.058 2°58.995 54.8 14.4 55 12
2012-02-17 07:49:29 51°17.069 2°59.021 56.3 14.3 57 11.9
2012-02-17 07:49:34 51°17.079 2°59.048 56.3 14.2 57 12.2
2012-02-17 07:49:39 51°17.091 2°59.074 57.4 14.3 55 12.1
2012-02-17 07:49:44 51°17.101 2°59.1 56.6 14.3 60 12.1
2012-02-17 07:49:49 51°17.112 2°59.126 57.6 14.2 57 12
2012-02-17 07:49:54 51°17.123 2°59.153 57.7 14.2 57 11.8
2012-02-17 07:49:59 51°17.133 2°59.179 57.7 14.2 59 12.1
2012-02-17 07:50:04 51°17.144 2°59.205 58 14.3 55 12
2012-02-17 07:50:09 51°17.154 2°59.232 57 14.3 58 12
2012-02-17 07:50:14 51°17.166 2°59.257 57.2 14.2 55 12.4
2012-02-17 07:50:19 51°17.176 2°59.285 56.1 14.3 58 12.2
2012-02-17 07:50:24 51°17.188 2°59.31 56.4 14.2 54 12
2012-02-17 07:50:28 51°17.197 2°59.331 55.2 14.2 56 11.9
2012-02-17 07:50:34 51°17.211 2°59.361 54.4 14.3 53 11.7
2012-02-17 07:50:40 51°17.225 2°59.391 53 14.2 53 11.8
2012-02-17 07:50:44 51°17.234 2°59.412 52.6 14.3 55 12.1
2012-02-17 07:50:49 51°17.246 2°59.437 52.9 14.2 53 11.7
2012-02-17 07:50:54 51°17.257 2°59.464 53.5 14.2 56 12.1
2012-02-17 07:50:59 51°17.268 2°59.489 54.5 14.2 55 12
2012-02-17 07:51:05 51°17.281 2°59.521 55.1 14.3 57 12.1
2012-02-17 07:51:09 51°17.291 2°59.541 55.1 14.2 54 11.9
2012-02-17 07:51:14 51°17.302 2°59.567 54.7 14.2 56 12.1
2012-02-17 07:51:19 51°17.314 2°59.592 53.8 14.2 53 12.1
2012-02-17 07:51:24 51°17.326 2°59.617 52.3 14.2 52 11.9
2012-02-17 07:51:29 51°17.338 2°59.642 51.6 14.2 53 11.9
2012-02-17 07:51:34 51°17.35 2°59.666 51.4 14.1 51 12.1
2012-02-17 07:51:39 51°17.362 2°59.692 51.3 14.3 52 11.7
2012-02-17 07:51:44 51°17.374 2°59.717 51.7 14.3 51 11.9
2012-02-17 07:51:49 51°17.386 2°59.742 51.4 14.3 55 12.1
2012-02-17 07:51:54 51°17.398 2°59.767 52.3 14.3 51 12
2012-02-17 07:51:59 51°17.409 2°59.793 52.7 14.3 56 12
2012-02-17 07:52:04 51°17.421 2°59.818 53.9 14.3 53 12.1
2012-02-17 07:52:09 51°17.431 2°59.845 54.4 14.2 57 12
2012-02-17 07:52:14 51°17.442 2°59.871 56.4 14.2 57 11.8
2012-02-17 07:52:19 51°17.452 2°59.898 57.6 14.2 58 11.9
2012-02-17 07:52:24 51°17.463 2°59.925 57.8 14.3 58 12.1
2012-02-17 07:52:29 51°17.473 2°59.951 57.5 14.2 60 12.1
2012-02-17 07:52:34 51°17.484 2°59.977 58.6 14.2 55 11.8
2012-02-17 07:52:38 51°17.492 2°59.999 57.3 14.2 59 11.9
2012-02-17 07:52:43 51°17.503 3°0.026 58.1 14.2 56 12
2012-02-17 07:52:48 51°17.513 3°0.053 57.2 14.2 59 12.3
2012-02-17 07:52:54 51°17.526 3°0.084 57.6 14.1 58 12.4
2012-02-17 07:52:59 51°17.536 3°0.111 58.2 14.1 59 12.3
2012-02-17 07:53:04 51°17.547 3°0.138 57.8 14.2 58 12.1
2012-02-17 07:53:09 51°17.557 3°0.164 58.1 14.2 57 12
2012-02-17 07:53:14 51°17.568 3°0.191 57.1 14.2 59 11.9
2012-02-17 07:53:19 51°17.578 3°0.217 57.8 14.2 57 12.3
2012-02-17 07:53:23 51°17.587 3°0.238 56.7 14.2 58 12.2
2012-02-17 07:53:28 51°17.598 3°0.265 57.3 14.2 57 12.2
2012-02-17 07:53:34 51°17.611 3°0.296 56.2 14.3 55 12.2
2012-02-17 07:53:39 51°17.622 3°0.322 55.2 14.2 54 12.2
2012-02-17 07:53:43 51°17.632 3°0.342 53.4 14.2 53 12.2
2012-02-17 07:53:48 51°17.643 3°0.368 53.8 14.2 55 11.9
2012-02-17 07:53:55 51°17.66 3°0.403 53.7 14.3 53 12
2012-02-17 07:53:59 51°17.669 3°0.423 53.8 14.2 54 12.1
2012-02-17 07:54:04 51°17.68 3°0.448 53.4 14.2 53 11.9
2012-02-17 07:54:09 51°17.692 3°0.475 54.3 14.2 55 12
2012-02-17 07:54:14 51°17.703 3°0.501 55.2 14.3 55 12.1
2012-02-17 07:54:19 51°17.715 3°0.526 55.7 14.3 55 11.8
2012-02-17 07:54:24 51°17.726 3°0.553 56.4 14.3 56 11.8
2012-02-17 07:54:29 51°17.736 3°0.58 57.3 14.4 57 12.1
2012-02-17 07:54:34 51°17.748 3°0.607 57.4 14.5 57 11.8
2012-02-17 07:54:39 51°17.758 3°0.634 58.2 14.5 58 11.8
2012-02-17 07:54:44 51°17.769 3°0.66 58.7 14.5 56 11.8
2012-02-17 07:54:48 51°17.778 3°0.682 58.4 14.4 58 11.6
2012-02-17 07:54:54 51°17.79 3°0.715 58.9 14.5 58 11.9
2012-02-17 07:54:59 51°17.802 3°0.741 58.5 14.4 57 11.9
2012-02-17 07:55:04 51°17.812 3°0.768 58.4 14.4 57 12.1
2012-02-17 07:55:09 51°17.823 3°0.794 57.5 14.4 56 12.2
2012-02-17 07:55:14 51°17.834 3°0.82 57.3 14.4 56 12.2
2012-02-17 07:55:19 51°17.845 3°0.847 57.3 14.4 57 12.1
2012-02-17 07:55:24 51°17.857 3°0.874 57.6 14.5 55 11.9
2012-02-17 07:55:29 51°17.868 3°0.9 56.4 14.5 56 11.7
2012-02-17 07:55:34 51°17.88 3°0.926 56.7 14.5 54 11.9
2012-02-17 07:55:39 51°17.891 3°0.952 55.8 14.5 56 11.9
2012-02-17 07:55:44 51°17.903 3°0.977 55.2 14.3 53 11.9
2012-02-17 07:55:49 51°17.914 3°1.002 54.4 14.3 54 11.9
2012-02-17 07:55:54 51°17.927 3°1.028 54.2 14.5 52 11.8
2012-02-17 07:55:59 51°17.939 3°1.054 52.8 14.4 53 11.8
2012-02-17 07:56:05 51°17.953 3°1.084 52.6 14.3 53 11.4
2012-02-17 07:56:08 51°17.96 3°1.098 53.1 14.3 52 11.7
2012-02-17 07:56:13 51°17.973 3°1.123 51.9 14.2 53 11.6
2012-02-17 07:56:20 51°17.99 3°1.159 53.2 14.4 52 12
2012-02-17 07:56:25 51°18.002 3°1.185 53.1 14.3 53 11.6
2012-02-17 07:56:29 51°18.011 3°1.206 54.5 14.4 55 11.4
2012-02-17 07:56:34 51°18.023 3°1.231 55 14.4 54 11.4
2012-02-17 07:56:39 51°18.034 3°1.258 55.7 14.4 55 11.4
2012-02-17 07:56:45 51°18.048 3°1.29 56.6 14.5 57 11.6
2012-02-17 07:56:49 51°18.057 3°1.311 57.1 14.5 56 12
2012-02-17 07:56:54 51°18.068 3°1.338 57.5 14.6 57 11.6
2012-02-17 07:56:59 51°18.079 3°1.365 58 14.6 57 11.6
2012-02-17 07:57:04 51°18.09 3°1.392 58.2 14.6 56 11.6
2012-02-17 07:57:09 51°18.101 3°1.418 57.1 14.5 56 11.7
2012-02-17 07:57:14 51°18.113 3°1.445 56.2 14.6 53 12.2
2012-02-17 07:57:19 51°18.125 3°1.47 53.5 14.6 54 11.7
2012-02-17 07:57:24 51°18.138 3°1.495 54.2 14.6 51 11.4
2012-02-17 07:57:29 51°18.15 3°1.52 52.5 14.5 52 11.7
2012-02-17 07:57:34 51°18.163 3°1.545 51.8 14.5 51 11.7
2012-02-17 07:57:39 51°18.175 3°1.571 51.6 14.6 52 11.7
2012-02-17 07:57:44 51°18.189 3°1.595 50.9 14.5 50 11.6
2012-02-17 07:57:49 51°18.201 3°1.619 50.1 14.5 51 11.4
2012-02-17 07:57:53 51°18.211 3°1.639 50.6 14.5 51 11.4
2012-02-17 07:57:59 51°18.226 3°1.67 51.5 14.7 53 11.7
2012-02-17 07:58:04 51°18.239 3°1.695 52.5 14.5 53 11.7
2012-02-17 07:58:09 51°18.25 3°1.721 53.5 14.5 54 11.4
2012-02-17 07:58:13 51°18.26 3°1.741 54.5 14.5 52 11.4
2012-02-17 07:58:19 51°18.275 3°1.773 53.6 14.6 55 11.5
2012-02-17 07:58:24 51°18.286 3°1.8 54.9 14.6 54 11.6
2012-02-17 07:58:29 51°18.298 3°1.827 55.9 14.6 56 11.3
2012-02-17 07:58:33 51°18.307 3°1.847 56.5 14.5 55 11.9
2012-02-17 07:58:39 51°18.321 3°1.878 56.2 14.5 55 11.2
2012-02-17 07:58:44 51°18.333 3°1.904 56 14.6 53 11.3
2012-02-17 07:58:49 51°18.346 3°1.93 54.2 14.6 53 11.2
2012-02-17 07:58:53 51°18.355 3°1.951 53.9 14.4 54 11.4
2012-02-17 07:58:59 51°18.37 3°1.981 54.2 14.3 51 11.3
2012-02-17 07:59:04 51°18.381 3°2.008 53.6 14.6 54 11.3
2012-02-17 07:59:09 51°18.394 3°2.032 53.9 14.6 51 11.3
2012-02-17 07:59:14 51°18.406 3°2.059 53.8 14.5 55 11.3
2012-02-17 07:59:19 51°18.418 3°2.085 54.2 14.6 54 11.2
2012-02-17 07:59:24 51°18.429 3°2.112 56.2 14.6 56 11
2012-02-17 07:59:29 51°18.441 3°2.139 56.3 14.6 56 10.9
2012-02-17 07:59:34 51°18.451 3°2.165 57.6 14.4 58 11.3
2012-02-17 07:59:39 51°18.462 3°2.191 58.5 14.3 56 11
2012-02-17 07:59:44 51°18.472 3°2.218 58.4 14.4 57 11.2
2012-02-17 07:59:50 51°18.486 3°2.253 58.4 14.5 58 11.2
2012-02-17 07:59:54 51°18.494 3°2.274 59.5 14.5 57 11.2
2012-02-17 07:59:59 51°18.505 3°2.301 58.9 14.5 57 10.6
2012-02-17 08:00:04 51°18.516 3°2.328 60 14.5 56 10.6
2012-02-17 08:00:09 51°18.527 3°2.354 58.4 14.4 57 10.9
2012-02-17 08:00:14 51°18.538 3°2.38 58.2 14.3 55 11
2012-02-17 08:00:19 51°18.549 3°2.407 56.4 14.4 56 11
2012-02-17 08:00:24 51°18.562 3°2.432 54.8 14.5 51 10.9
2012-02-17 08:00:29 51°18.573 3°2.458 54.1 14.4 56 10.6
2012-02-17 08:00:34 51°18.585 3°2.484 55.3 14.4 52 10.9
2012-02-17 08:00:38 51°18.594 3°2.505 54.8 14.4 56 10.9
2012-02-17 08:00:44 51°18.608 3°2.535 55.3 14.3 54 10.8
2012-02-17 08:00:49 51°18.62 3°2.562 55.9 14.3 55 10.7
2012-02-17 08:00:54 51°18.632 3°2.588 56.4 14.4 54 10.7
2012-02-17 08:00:59 51°18.643 3°2.614 56.4 14.5 55 10.9
2012-02-17 08:01:04 51°18.655 3°2.641 56.4 14.5 55 10.7
2012-02-17 08:01:09 51°18.667 3°2.666 56.6 14.4 54 10.8
2012-02-17 08:01:14 51°18.678 3°2.692 56.4 14.4 55 10.7
2012-02-17 08:01:19 51°18.69 3°2.716 55.7 14.4 51 10.7
2012-02-17 08:01:24 51°18.702 3°2.742 53.3 14.3 54 10.8
2012-02-17 08:01:29 51°18.715 3°2.767 53.6 14.4 51 10.7
2012-02-17 08:01:34 51°18.728 3°2.791 51.7 14.3 50 10.5
2012-02-17 08:01:39 51°18.74 3°2.817 51.6 14.3 52 10.3
2012-02-17 08:01:44 51°18.752 3°2.841 52.3 14.3 52 10.5
2012-02-17 08:01:49 51°18.764 3°2.867 53 14.2 54 10.7
2012-02-17 08:01:54 51°18.776 3°2.892 54.5 14.3 54 10.7
2012-02-17 08:01:59 51°18.788 3°2.918 54.6 14.3 54 10.5
2012-02-17 08:02:04 51°18.798 3°2.944 55.5 14.3 56 10.3
2012-02-17 08:02:09 51°18.81 3°2.97 57 14.2 56 10.2
2012-02-17 08:02:14 51°18.82 3°2.996 58 14.1 56 10.4
2012-02-17 08:02:19 51°18.831 3°3.022 58.6 14.1 58 10.4
2012-02-17 08:02:24 51°18.842 3°3.048 59.3 14.1 56 10.2
2012-02-17 08:02:29 51°18.852 3°3.075 58.9 14.1 58 10.4
2012-02-17 08:02:34 51°18.863 3°3.101 58.9 14.2 56 10.6
2012-02-17 08:02:39 51°18.872 3°3.127 58.7 14 60 10.6
2012-02-17 08:02:44 51°18.884 3°3.152 59.6 13.9 55 10.1
2012-02-17 08:02:49 51°18.894 3°3.178 58.4 13.9 56 10.3
2012-02-17 08:02:54 51°18.905 3°3.203 57.4 13.9 56 10.2
2012-02-17 08:02:58 51°18.914 3°3.224 57.7 14 55 10.4
2012-02-17 08:03:04 51°18.927 3°3.255 57.7 14 56 10.4
2012-02-17 08:03:09 51°18.938 3°3.281 57.5 13.9 56 10.4
2012-02-17 08:03:14 51°18.95 3°3.306 57.7 13.9 55 10.3
2012-02-17 08:03:18 51°18.958 3°3.327 58.2 14 56 10.6
2012-02-17 08:03:24 51°18.972 3°3.356 57.1 13.9 53 10.4
2012-02-17 08:03:29 51°18.983 3°3.381 56.3 13.9 54 10.1
2012-02-17 08:03:34 51°18.995 3°3.407 56.2 14.1 53 10.6
2012-02-17 08:03:38 51°19.005 3°3.426 54 14 52 10.7
2012-02-17 08:03:43 51°19.016 3°3.451 54.1 13.9 52 10.4
2012-02-17 08:03:49 51°19.032 3°3.479 52.3 13.9 49 10.5
2012-02-17 08:03:54 51°19.044 3°3.502 51 13.8 48 10.4
2012-02-17 08:03:58 51°19.054 3°3.521 50.6 13.8 50 10.3
2012-02-17 08:04:04 51°19.069 3°3.548 50.2 13.8 49 10.2
2012-02-17 08:04:09 51°19.081 3°3.572 50.8 13.9 50 10.7
2012-02-17 08:04:14 51°19.094 3°3.594 50.1 13.8 49 10.4
2012-02-17 08:04:18 51°19.104 3°3.613 50.6 13.8 50 10.2
2012-02-17 08:04:25 51°19.121 3°3.646 51.6 13.8 51 10.5
2012-02-17 08:04:28 51°19.128 3°3.66 52.2 13.7 51 10.7
2012-02-17 08:04:35 51°19.144 3°3.694 52.8 13.6 52 10.5
2012-02-17 08:04:39 51°19.153 3°3.713 54.1 13.6 53 10.7
2012-02-17 08:04:44 51°19.165 3°3.738 54.6 13.7 53 10.6
2012-02-17 08:04:49 51°19.176 3°3.762 55.2 13.7 55 10.7
2012-02-17 08:04:54 51°19.187 3°3.787 56.5 13.7 55 10.6
2012-02-17 08:04:59 51°19.197 3°3.812 57.1 13.7 56 10.6
2012-02-17 08:05:04 51°19.208 3°3.838 58.4 13.8 56 10.7
2012-02-17 08:05:09 51°19.218 3°3.863 58.3 13.7 57 10.7
2012-02-17 08:05:14 51°19.229 3°3.889 59 13.8 55 10.8
2012-02-17 08:05:19 51°19.239 3°3.914 58.6 13.8 56 10.7
2012-02-17 08:05:24 51°19.25 3°3.939 58.5 13.8 56 10.8
2012-02-17 08:05:29 51°19.261 3°3.964 58.8 13.8 56 10.7
2012-02-17 08:05:34 51°19.272 3°3.989 57.9 13.8 54 10.5
2012-02-17 08:05:39 51°19.284 3°4.013 57 13.7 52 -999
2012-02-17 08:05:43 51°19.293 3°4.032 54.4 13.7 52 10.7
2012-02-17 08:05:49 51°19.308 3°4.06 53 13.8 48 10.6
2012-02-17 08:05:54 51°19.32 3°4.084 51.2 13.9 51 10.7
2012-02-17 08:05:59 51°19.333 3°4.107 51.6 13.8 49 10.7
2012-02-17 08:06:03 51°19.343 3°4.125 51 13.8 49 10.9
2012-02-17 08:06:09 51°19.358 3°4.152 50.9 13.8 47 10.9
2012-02-17 08:06:14 51°19.369 3°4.177 50.9 13.9 53 10.6
2012-02-17 08:06:19 51°19.382 3°4.201 52.3 13.9 51 10.9
2012-02-17 08:06:23 51°19.39 3°4.221 54.2 14 55 10.8
2012-02-17 08:06:29 51°19.404 3°4.251 55.6 14 52 10.6
2012-02-17 08:06:34 51°19.415 3°4.277 56 14 58 10.5
2012-02-17 08:06:39 51°19.426 3°4.302 57.9 14 56 10.7
2012-02-17 08:06:43 51°19.434 3°4.324 58.9 14 58 10.7
2012-02-17 08:06:48 51°19.445 3°4.35 59.7 14.1 56 10.7
2012-02-17 08:06:54 51°19.457 3°4.381 59.1 14.1 58 10.7
2012-02-17 08:06:59 51°19.468 3°4.407 59.7 14.1 57 11.1
2012-02-17 08:07:03 51°19.476 3°4.428 59.6 14.2 59 10.9
2012-02-17 08:07:09 51°19.488 3°4.46 60.3 14.1 58 10.9
2012-02-17 08:07:14 51°19.498 3°4.487 60.7 14.2 60 10.6
2012-02-17 08:07:19 51°19.508 3°4.515 62.5 14.2 61 10.6
2012-02-17 08:07:23 51°19.516 3°4.536 62.7 14.1 60 10.5
2012-02-17 08:07:29 51°19.527 3°4.57 64.1 14.3 63 10.8
2012-02-17 08:07:34 51°19.536 3°4.598 63.8 14.3 62 10.7
2012-02-17 08:07:39 51°19.545 3°4.626 64.2 14.3 63 10.8
2012-02-17 08:07:43 51°19.553 3°4.648 64.3 14.3 62 10.9
2012-02-17 08:07:48 51°19.562 3°4.676 64.4 14.4 63 10.7
2012-02-17 08:07:54 51°19.573 3°4.711 65.1 14.6 63 10.9
2012-02-17 08:07:59 51°19.583 3°4.739 64.4 14.6 62 10.9
2012-02-17 08:08:04 51°19.592 3°4.767 64.1 14.5 61 10.9
2012-02-17 08:08:08 51°19.601 3°4.788 62.5 14.5 60 10.7
2012-02-17 08:08:14 51°19.613 3°4.822 62.2 14.6 58 10.8
2012-02-17 08:08:19 51°19.623 3°4.849 59.7 14.5 59 10.7
2012-02-17 08:08:23 51°19.631 3°4.871 61 14.5 60 10.5
2012-02-17 08:08:29 51°19.644 3°4.904 60.8 14.4 58 10.8
2012-02-17 08:08:34 51°19.655 3°4.931 60.2 14.4 58 10.7
2012-02-17 08:08:39 51°19.665 3°4.958 59.9 14.5 58 10.5
2012-02-17 08:08:43 51°19.673 3°4.98 60.1 14.5 59 10.9
2012-02-17 08:08:48 51°19.684 3°5.007 60.5 14.5 59 10.8
2012-02-17 08:08:54 51°19.696 3°5.04 60.9 14.6 59 10.7
2012-02-17 08:08:59 51°19.706 3°5.068 61.1 14.5 59 10.9
2012-02-17 08:09:03 51°19.715 3°5.09 61.2 14.6 60 10.9
2012-02-17 08:09:09 51°19.727 3°5.123 61.6 14.6 59 10.5
2012-02-17 08:09:14 51°19.737 3°5.151 61.6 14.6 59 10.7
2012-02-17 08:09:19 51°19.748 3°5.177 60.8 14.4 58 10.7
2012-02-17 08:09:23 51°19.756 3°5.199 60.6 14.5 61 11
2012-02-17 08:09:28 51°19.767 3°5.226 61 14.4 57 10.7
2012-02-17 08:09:33 51°19.776 3°5.254 61.1 14.3 60 10.5
2012-02-17 08:09:39 51°19.788 3°5.286 62.2 14.3 59 10.6
2012-02-17 08:09:43 51°19.796 3°5.309 62.5 14.2 61 10.7
2012-02-17 08:09:49 51°19.807 3°5.342 63.3 14.4 62 10.9
2012-02-17 08:09:54 51°19.818 3°5.369 63.2 14.2 59 10.8
2012-02-17 08:09:59 51°19.828 3°5.396 61.8 14.2 59 10.3
2012-02-17 08:10:03 51°19.836 3°5.418 61.8 14.3 58 10.7
2012-02-17 08:10:08 51°19.847 3°5.444 60 14.3 58 10.6
2012-02-17 08:10:14 51°19.86 3°5.476 59.6 14.3 56 10.8
2012-02-17 08:10:19 51°19.871 3°5.502 58.7 14.2 57 10.3
2012-02-17 08:10:23 51°19.881 3°5.522 57.9 14.2 53 10.5
2012-02-17 08:10:29 51°19.893 3°5.554 56.7 14.2 57 10.9
2012-02-17 08:10:34 51°19.906 3°5.579 56 14.2 51 10.7
2012-02-17 08:10:39 51°19.917 3°5.605 55.6 14.3 57 10.9
2012-02-17 08:10:43 51°19.927 3°5.625 55.1 14.3 52 10.7
2012-02-17 08:10:49 51°19.94 3°5.656 56.2 14.2 55 10.9
2012-02-17 08:10:54 51°19.952 3°5.681 55.9 14.3 55 11
2012-02-17 08:10:59 51°19.964 3°5.707 56.2 14.3 54 10.6
2012-02-17 08:11:03 51°19.972 3°5.727 56.8 14.1 56 10.3
2012-02-17 08:11:08 51°19.983 3°5.753 58 14.1 55 10.8
2012-02-17 08:11:14 51°19.996 3°5.785 58.2 14.1 58 10.9
2012-02-17 08:11:19 51°20.007 3°5.81 59.2 14 57 10.5
2012-02-17 08:11:23 51°20.015 3°5.832 60.6 14.1 59 10.4
2012-02-17 08:11:28 51°20.025 3°5.859 61.2 14.1 59 10.6
2012-02-17 08:11:34 51°20.037 3°5.891 61.9 14.1 58 10.7
2012-02-17 08:11:39 51°20.046 3°5.918 62.2 14 61 10.7
2012-02-17 08:11:43 51°20.054 3°5.939 63.4 14 60 10.8
2012-02-17 08:11:49 51°20.066 3°5.972 63.2 14 60 10.8
2012-02-17 08:11:54 51°20.076 3°5.999 63.2 14 61 10.7
2012-02-17 08:11:59 51°20.085 3°6.026 63.6 14.1 61 10.7
2012-02-17 08:12:03 51°20.093 3°6.048 64 14.1 60 10.4
2012-02-17 08:12:08 51°20.102 3°6.075 64.5 14 61 10.6
2012-02-17 08:12:14 51°20.114 3°6.108 64.5 14.1 60 10.6
2012-02-17 08:12:19 51°20.124 3°6.135 63.8 14.1 60 11.1
2012-02-17 08:12:23 51°20.132 3°6.156 61.9 14.1 59 10.5
2012-02-17 08:12:29 51°20.145 3°6.187 61.7 14 57 10.5
2012-02-17 08:12:34 51°20.155 3°6.213 60.5 14 58 10.7
2012-02-17 08:12:39 51°20.166 3°6.239 60.2 14 57 10.5
2012-02-17 08:12:43 51°20.174 3°6.26 60.2 14.1 57 10.5
2012-02-17 08:12:49 51°20.186 3°6.292 60.5 14 58 10.5
2012-02-17 08:12:54 51°20.196 3°6.319 61.1 14 59 10.5
2012-02-17 08:12:59 51°20.206 3°6.345 61.2 14 58 10.6
2012-02-17 08:13:03 51°20.215 3°6.366 61.1 14 59 10.7
2012-02-17 08:13:08 51°20.225 3°6.392 61.8 13.9 58 10.7
2012-02-17 08:13:14 51°20.237 3°6.423 60.9 14 57 10.7
2012-02-17 08:13:19 51°20.248 3°6.449 59.1 14.1 55 10.5
2012-02-17 08:13:23 51°20.258 3°6.469 57.7 14.1 54 10.7
2012-02-17 08:13:28 51°20.269 3°6.494 56.4 14 53 10.2
2012-02-17 08:13:34 51°20.283 3°6.523 55.9 13.9 53 10.4
2012-02-17 08:13:39 51°20.294 3°6.548 55.5 14 54 10.6
2012-02-17 08:13:43 51°20.304 3°6.567 54.6 14 51 10.5
2012-02-17 08:13:48 51°20.316 3°6.592 54.8 14 55 10.7
2012-02-17 08:13:54 51°20.33 3°6.622 55 14 52 10.4
2012-02-17 08:13:59 51°20.341 3°6.648 55.2 14 55 10.6
2012-02-17 08:14:03 51°20.35 3°6.668 56.7 14 57 10.6
2012-02-17 08:14:08 51°20.361 3°6.694 59.5 14 57 10.6
2012-02-17 08:14:14 51°20.373 3°6.726 60.3 14 58 10.6
2012-02-17 08:14:19 51°20.384 3°6.753 60.5 14.1 57 10.3
2012-02-17 08:14:23 51°20.391 3°6.774 61.6 14.1 60 10.6
2012-02-17 08:14:28 51°20.402 3°6.801 61.6 14.2 58 10.5
2012-02-17 08:14:34 51°20.414 3°6.832 61.3 14.2 58 10.5
2012-02-17 08:14:39 51°20.424 3°6.859 60.5 14 59 10.4
2012-02-17 08:14:43 51°20.432 3°6.88 61.4 14.1 59 10.5
2012-02-17 08:14:49 51°20.444 3°6.914 62.1 14.2 61 10.5
2012-02-17 08:14:54 51°20.454 3°6.941 63.7 14.4 58 10.5
2012-02-17 08:14:59 51°20.464 3°6.968 62 14.3 60 10.6
2012-02-17 08:15:03 51°20.472 3°6.99 62.2 14.4 60 10.4
2012-02-17 08:15:08 51°20.482 3°7.017 62.9 14.3 59 10.5
2012-02-17 08:15:14 51°20.494 3°7.051 62.7 14.4 61 10.7
2012-02-17 08:15:19 51°20.505 3°7.077 61.7 14.2 56 10.6
2012-02-17 08:15:23 51°20.512 3°7.099 61.1 14.2 61 10.6
2012-02-17 08:15:28 51°20.523 3°7.125 61.7 14.2 56 10.7
2012-02-17 08:15:34 51°20.536 3°7.158 60.3 14.3 59 10.7
2012-02-17 08:15:39 51°20.547 3°7.184 60.7 14.4 56 10.7
2012-02-17 08:15:43 51°20.556 3°7.206 59.4 14.2 57 10.7
2012-02-17 08:15:49 51°20.568 3°7.238 59.9 14.4 57 10.6
2012-02-17 08:15:54 51°20.579 3°7.265 59.3 14.4 57 10.3
2012-02-17 08:15:59 51°20.589 3°7.293 61.3 14.4 62 10.4
2012-02-17 08:16:03 51°20.596 3°7.315 64.8 14.4 62 10.7
2012-02-17 08:16:08 51°20.606 3°7.343 65.1 14.3 64 10.6
2012-02-17 08:16:14 51°20.617 3°7.377 66.6 14.5 62 10.6
2012-02-17 08:16:19 51°20.625 3°7.405 67 14.3 64 10.4
2012-02-17 08:16:23 51°20.631 3°7.428 68.9 14.2 65 10.5
2012-02-17 08:16:28 51°20.641 3°7.456 67.6 14.4 61 10.5
2012-02-17 08:16:34 51°20.652 3°7.489 66.8 14.2 63 10.3
2012-02-17 08:16:39 51°20.661 3°7.518 66.7 14.2 63 10.5
2012-02-17 08:16:43 51°20.668 3°7.541 67.5 14.4 64 10.7
2012-02-17 08:16:49 51°20.679 3°7.575 66.8 14.4 64 10.6
2012-02-17 08:16:54 51°20.687 3°7.604 67.6 14.5 64 10.8
2012-02-17 08:16:59 51°20.696 3°7.632 67.8 14.4 65 10.9
2012-02-17 08:17:03 51°20.702 3°7.656 69 14.4 67 11
2012-02-17 08:17:08 51°20.711 3°7.684 68.3 14.4 64 10.8
2012-02-17 08:17:14 51°20.721 3°7.719 68.3 14.4 64 10.6
2012-02-17 08:17:19 51°20.731 3°7.748 67.9 14.5 63 11.1
2012-02-17 08:17:23 51°20.739 3°7.77 65.9 14.4 62 10.3
2012-02-17 08:17:29 51°20.75 3°7.805 66.6 14.6 62 10.6
2012-02-17 08:17:34 51°20.759 3°7.833 66.1 14.6 62 10.6
2012-02-17 08:17:39 51°20.769 3°7.861 66.1 14.6 62 10.9
2012-02-17 08:17:43 51°20.776 3°7.883 65.5 14.4 62 11
2012-02-17 08:17:49 51°20.787 3°7.918 66.3 14.5 62 10.8
2012-02-17 08:17:54 51°20.796 3°7.946 66.6 14.5 63 10.6
2012-02-17 08:17:59 51°20.806 3°7.974 66.5 14.4 61 10.6
2012-02-17 08:18:03 51°20.812 3°7.997 65.8 14.4 63 10.8
2012-02-17 08:18:08 51°20.822 3°8.025 66.3 14.4 61 10.7
2012-02-17 08:18:14 51°20.833 3°8.06 66.7 14.5 64 10.6
2012-02-17 08:18:19 51°20.843 3°8.087 66.9 14.5 60 10.8
2012-02-17 08:18:23 51°20.851 3°8.11 65 14.5 62 11
2012-02-17 08:18:28 51°20.86 3°8.138 65.1 14.3 61 10.8
2012-02-17 08:18:34 51°20.872 3°8.171 63.8 14.3 61 10.8
2012-02-17 08:18:39 51°20.882 3°8.199 63.9 14.4 60 11.1
2012-02-17 08:18:43 51°20.891 3°8.221 63.2 14.5 59 11
2012-02-17 08:18:49 51°20.903 3°8.253 63.3 14.3 58 11
2012-02-17 08:18:54 51°20.913 3°8.281 61.8 14.5 60 10.9
2012-02-17 08:18:59 51°20.923 3°8.309 62.6 14.6 59 11.2
2012-02-17 08:19:03 51°20.931 3°8.33 63 14.3 61 11.1
2012-02-17 08:19:08 51°20.94 3°8.359 65.2 14.4 62 11.2
2012-02-17 08:19:14 51°20.952 3°8.392 65.2 14.4 62 11.2
2012-02-17 08:19:19 51°20.96 3°8.42 66.3 14.1 62 11.2
2012-02-17 08:19:23 51°20.968 3°8.441 66 13.7 61 11
2012-02-17 08:19:29 51°20.977 3°8.473 66.1 13.3 64 11.4
2012-02-17 08:19:34 51°20.986 3°8.498 67.4 12.8 64 11.3
2012-02-17 08:19:39 51°20.994 3°8.522 68 12 62 11.2
2012-02-17 08:19:43 51°20.999 3°8.54 67.8 11.4 64 11.2
2012-02-17 08:19:49 51°21.007 3°8.565 68 10.7 63 11.3
2012-02-17 08:19:54 51°21.013 3°8.585 68.8 9.9 63 11.2
2012-02-17 08:19:59 51°21.019 3°8.603 68.7 9.2 64 11.4
2012-02-17 08:20:03 51°21.023 3°8.617 68.9 8.8 62 11.4
2012-02-17 08:20:08 51°21.029 3°8.634 67.5 8.4 62 11.7
2012-02-17 08:20:14 51°21.035 3°8.651 65.9 7.8 61 11.7
2012-02-17 08:20:19 51°21.041 3°8.666 64.9 7.6 57 11.2
2012-02-17 08:20:23 51°21.046 3°8.677 62 7.4 54 11.4
2012-02-17 08:20:28 51°21.052 3°8.688 56.8 7 51 11.7
2012-02-17 08:20:34 51°21.059 3°8.701 50.2 6.5 47 12
2012-02-17 08:20:39 51°21.065 3°8.71 46.2 6.1 44 11.8
2012-02-17 08:20:43 51°21.07 3°8.717 41.7 5.9 42 11.9
2012-02-17 08:20:49 51°21.077 3°8.726 37.5 5.4 37 11.7
2012-02-17 08:20:54 51°21.083 3°8.733 33.5 5.2 36 11.8
2012-02-17 08:20:59 51°21.089 3°8.739 29.1 5 32 11.7
2012-02-17 08:21:03 51°21.093 3°8.744 24.3 4.9 33 11.8
2012-02-17 08:21:08 51°21.099 3°8.748 21.1 4.7 30 12.1
2012-02-17 08:21:14 51°21.105 3°8.754 17.1 4.5 27 11.9
2012-02-17 08:21:19 51°21.111 3°8.758 13.6 4.4 24 11.8
2012-02-17 08:21:23 51°21.115 3°8.761 10.3 4.3 23 11.8
2012-02-17 08:21:28 51°21.12 3°8.765 8.6 4.1 23 11.7
2012-02-17 08:21:34 51°21.127 3°8.77 7.2 4.1 27 11.9
2012-02-17 08:21:39 51°21.132 3°8.774 6.5 4.1 25 12.1
2012-02-17 08:21:43 51°21.136 3°8.776 5.1 4 22 11.6
2012-02-17 08:21:49 51°21.142 3°8.781 3.8 3.9 23 11.6
2012-02-17 08:21:54 51°21.147 3°8.784 3.3 3.8 22 11.9
2012-02-17 08:21:59 51°21.152 3°8.787 3 3.9 23 12
2012-02-17 08:22:03 51°21.156 3°8.79 2.1 3.8 21 11.8
2012-02-17 08:22:08 51°21.16 3°8.793 0.9 3.7 20 12.1
2012-02-17 08:22:14 51°21.166 3°8.796 359.9 3.6 19 11.7
2012-02-17 08:22:19 51°21.171 3°8.798 358 3.5 19 11.6
2012-02-17 08:22:23 51°21.174 3°8.8 355.6 3.4 18 11.7
2012-02-17 08:22:28 51°21.178 3°8.803 352.9 3.2 19 11.9
2012-02-17 08:22:34 51°21.183 3°8.805 350 3.1 16 12.3
2012-02-17 08:22:39 51°21.187 3°8.807 347.3 3.1 15 12.4
2012-02-17 08:22:43 51°21.19 3°8.809 343.6 2.9 17 12.3
2012-02-17 08:22:49 51°21.194 3°8.811 342 2.8 17 12.2
2012-02-17 08:22:54 51°21.198 3°8.812 339.7 2.8 15 12
2012-02-17 08:22:59 51°21.202 3°8.814 337.1 2.7 14 12.2
2012-02-17 08:23:03 51°21.205 3°8.815 334.4 2.7 15 12.2
2012-02-17 08:23:08 51°21.208 3°8.817 332.5 2.7 14 12
2012-02-17 08:23:14 51°21.213 3°8.818 329.6 2.5 10 12.1
2012-02-17 08:23:19 51°21.216 3°8.819 327 2.5 10 12.4
2012-02-17 08:23:23 51°21.218 3°8.819 323.8 2.4 7 12.2
2012-02-17 08:23:28 51°21.222 3°8.82 321.8 2.3 12 12.1
2012-02-17 08:23:34 51°21.225 3°8.821 319.5 2.3 9 12
2012-02-17 08:23:39 51°21.228 3°8.822 316.9 2.3 7 12.1
2012-02-17 08:23:43 51°21.231 3°8.822 314.2 2.1 6 11.7
2012-02-17 08:23:49 51°21.234 3°8.823 312 2.1 7 11.8
2012-02-17 08:23:54 51°21.237 3°8.823 309.9 1.9 3 12
2012-02-17 08:23:59 51°21.239 3°8.824 307.5 1.8 4 12.6
2012-02-17 08:24:03 51°21.241 3°8.824 305.5 1.9 7 12.1
2012-02-17 08:24:08 51°21.244 3°8.825 303 1.9 8 12
2012-02-17 08:24:14 51°21.247 3°8.825 300.3 1.8 3 12.1
2012-02-17 08:24:19 51°21.249 3°8.824 298.4 1.7 351 12.1
2012-02-17 08:24:23 51°21.252 3°8.824 295.8 1.8 350 12.2
2012-02-17 08:24:28 51°21.254 3°8.823 292.3 1.8 340 11.9
2012-02-17 08:24:34 51°21.256 3°8.82 287 1.8 326 12
2012-02-17 08:24:39 51°21.258 3°8.816 282 2.2 311 12
2012-02-17 08:24:43 51°21.26 3°8.812 278.2 2.7 299 12.2
2012-02-17 08:24:49 51°21.262 3°8.803 276 3.6 293 12
2012-02-17 08:24:54 51°21.264 3°8.794 275.2 4.4 287 11.6
2012-02-17 08:24:59 51°21.266 3°8.783 276 5.1 288 11.8
2012-02-17 08:25:03 51°21.268 3°8.774 278.2 5.6 289 11.4
2012-02-17 08:25:08 51°21.271 3°8.761 280.3 6.4 292 11.2
2012-02-17 08:25:14 51°21.275 3°8.743 282.6 7.1 292 11.2
2012-02-17 08:25:19 51°21.28 3°8.728 284.6 7.6 293 11.4
2012-02-17 08:25:23 51°21.283 3°8.715 286.4 8.1 294 11.3
2012-02-17 08:25:28 51°21.288 3°8.698 287.5 8.5 295 11.4
2012-02-17 08:25:34 51°21.295 3°8.677 289 8.8 297 11.4
2012-02-17 08:25:39 51°21.301 3°8.659 290.9 9.2 299 11.6